Radar AviationWeather DUATS TFRs Wunderground Accuweather Weather.com

alt : Radar

TAFs

KCLE 170253Z 1703/1806 04010KT P6SM OVC035
     TEMPO 1703/1706 BKN030
   FM171500 14010KT P6SM BKN025
   FM171900 16010KT 2SM -SN OVC015
   FM180400 19008KT 6SM -SN BR OVC010
KDTW 170215Z 1702/1806 00000KT P6SM SCT035 BKN200
   FM170300 VRB03KT P6SM BKN035 OVC200
   FM171000 10005KT P6SM BKN025 OVC150
   FM171600 12008KT P6SM OVC025
   FM172000 16008KT 4SM -SN OVC015
   FM180100 20005KT 4SM BR OVC025
KFDY 162333Z 1700/1724 02004KT P6SM OVC035
   FM170500 09005KT P6SM OVC030
   FM171100 12007KT P6SM OVC015
   FM171500 13008KT 2SM -SN OVC008
   FM172000 16007KT 1SM -SN OVC005
KTOL 162333Z 1700/1724 03010KT P6SM OVC040
   FM170700 10006KT P6SM OVC030
     TEMPO 1707/1711 OVC035
   FM171300 10005KT P6SM BKN015 OVC020
   FM171600 12007KT 2SM -SN OVC008
   FM172200 14004KT 1SM -SN OVC005
KJXN 162330Z 1700/1724 03005KT P6SM SCT200
   FM170900 11006KT P6SM BKN025
   FM171200 12005KT P6SM BKN015
   FM171900 15007KT 2SM -SN BR OVC008
KFWA 162320Z 1700/1724 VRB03KT P6SM OVC030
   FM171300 10005KT 2SM -SN BR OVC015
   FM171800 13007KT 1SM -SN BR OVC006

METARs

KDUH 170335Z AUTO 08005KT 10SM SCT022 BKN031 OVC040 M02/M06 A3032 RMK AO2 T10251065
KTDZ 170317Z AUTO 08006KT 10SM SCT028 OVC038 M03/M07 A3033 RMK AO2 T10281067
KJXN 170256Z AUTO 05003KT 10SM CLR M07/M10 A3029 RMK AO2 SLP271 T10671100 51007
KFWA 170254Z 07005KT 10SM OVC033 M01/M04 A3027 RMK AO2 SLP261 T10111044 51003
KDTW 170253Z 11007KT 10SM BKN035 BKN200 M05/M11 A3033 RMK AO2 SLP280 T10501111 51012
KFDY 170253Z AUTO 07006KT 10SM OVC036 M01/M04 A3028 RMK AO2 SLP259 T10111044 51008
KTOL 170252Z 10009KT 10SM SCT030 OVC038 M02/M07 A3030 RMK AO2 SLP270 T10171072 53001
KCLE 170251Z 06008KT 10SM FEW023 OVC041 M03/M08 A3033 RMK AO2 SLP279 T10281078 51007

alt : Satellite

alt : TFRs